createdAt,value
2018-07-23T00:02:28.557Z,5.23
2018-07-23T00:04:56.732Z,3.80
2018-07-23T00:07:30.009Z,6.77
2018-07-23T00:10:00.250Z,4.37
2018-07-23T00:12:28.523Z,4.10
2018-07-23T00:14:56.824Z,4.33
2018-07-23T00:17:27.999Z,5.10
2018-07-23T00:20:06.044Z,4.40
2018-07-23T00:22:34.323Z,4.60
2018-07-23T00:25:08.027Z,6.03
2018-07-23T00:27:36.371Z,4.43
2018-07-23T00:30:07.630Z,3.87
2018-07-23T00:32:38.689Z,4.60
2018-07-23T00:35:11.580Z,5.00
2018-07-23T00:37:39.532Z,4.47
2018-07-23T00:40:08.037Z,5.10
2018-07-23T00:42:36.667Z,4.57
2018-07-23T00:45:07.250Z,5.37
2018-07-23T00:47:39.680Z,4.93
2018-07-23T00:50:19.381Z,6.20
2018-07-23T00:52:53.824Z,6.47
2018-07-23T00:55:28.706Z,4.30
2018-07-23T00:57:57.158Z,4.70
2018-07-23T01:00:25.566Z,5.57
2018-07-23T01:02:53.811Z,6.07
2018-07-23T01:05:28.299Z,4.87
2018-07-23T01:08:02.883Z,6.83
2018-07-23T01:10:31.266Z,4.97
2018-07-23T01:13:03.466Z,4.20
2018-07-23T01:15:39.652Z,6.10
2018-07-23T01:18:10.844Z,4.10
2018-07-23T01:20:39.128Z,4.97
2018-07-23T01:23:13.133Z,4.27
2018-07-23T01:25:44.675Z,5.10
2018-07-23T01:28:17.338Z,4.23
2018-07-23T01:30:48.284Z,7.93
2018-07-23T01:33:16.810Z,6.03
2018-07-23T01:35:45.085Z,5.23
2018-07-23T01:38:13.327Z,5.17
2018-07-23T01:40:53.220Z,4.97
2018-07-23T01:43:21.634Z,5.90
2018-07-23T01:45:49.779Z,5.37
2018-07-23T01:48:29.506Z,5.47
2018-07-23T01:50:58.091Z,4.83
2018-07-23T01:53:26.320Z,4.40
2018-07-23T01:55:54.992Z,4.80
2018-07-23T01:58:23.287Z,5.30
2018-07-23T02:00:51.451Z,4.33
2018-07-23T02:03:25.110Z,6.30
2018-07-23T02:05:56.289Z,4.93
2018-07-23T02:08:28.079Z,5.80
2018-07-23T02:11:05.738Z,5.57
2018-07-23T02:13:33.958Z,6.03
2018-07-23T02:16:09.483Z,5.13
2018-07-23T02:18:42.927Z,5.27
2018-07-23T02:21:13.979Z,5.33
2018-07-23T02:23:53.851Z,5.10
2018-07-23T02:26:22.505Z,7.07
2018-07-23T02:28:56.819Z,6.07
2018-07-23T02:31:25.046Z,5.37
2018-07-23T02:34:00.527Z,6.03
2018-07-23T02:36:34.925Z,5.80
2018-07-23T02:39:09.571Z,5.20
2018-07-23T02:41:42.861Z,7.53
2018-07-23T02:44:22.614Z,6.23
2018-07-23T02:46:50.848Z,5.50
2018-07-23T02:49:21.926Z,4.87
2018-07-23T02:51:52.324Z,5.67
2018-07-23T02:54:28.449Z,5.83
2018-07-23T02:56:56.572Z,7.30
2018-07-23T02:59:27.716Z,5.13
2018-07-23T03:01:58.910Z,6.00
2018-07-23T03:04:27.181Z,6.57
2018-07-23T03:07:09.774Z,7.20
2018-07-23T03:09:38.030Z,5.47
2018-07-23T03:12:12.521Z,6.50
2018-07-23T03:14:45.471Z,5.50
2018-07-23T03:17:15.749Z,7.30
2018-07-23T03:19:43.979Z,6.60
2018-07-23T03:22:16.528Z,6.40
2018-07-23T03:24:45.086Z,6.33
2018-07-23T03:27:13.466Z,7.40
2018-07-23T03:29:45.616Z,6.70
2018-07-23T03:32:16.844Z,5.73
2018-07-23T03:34:47.182Z,5.80
2018-07-23T03:37:15.553Z,5.77
2018-07-23T03:39:43.831Z,6.63
2018-07-23T03:42:18.492Z,7.73
2018-07-23T03:44:46.756Z,6.80
2018-07-23T03:47:22.154Z,6.17
2018-07-23T03:49:57.535Z,6.23
2018-07-23T03:52:33.642Z,6.83
2018-07-23T03:55:14.373Z,7.37
2018-07-23T03:57:56.448Z,9.10
2018-07-23T04:00:28.820Z,7.23
2018-07-23T04:02:59.953Z,7.23
2018-07-23T04:05:28.101Z,7.13
2018-07-23T04:08:02.753Z,9.27
2018-07-23T04:10:31.157Z,9.27
2018-07-23T04:15:39.337Z,17.63
2018-07-23T04:18:07.541Z,27.63
2018-07-23T04:20:42.837Z,18.20
2018-07-23T04:23:13.290Z,17.70
2018-07-23T04:25:44.301Z,15.03
2018-07-23T04:28:12.522Z,17.10
2018-07-23T04:30:40.774Z,11.47
2018-07-23T04:33:11.866Z,15.53
2018-07-23T04:35:42.282Z,9.50
2018-07-23T04:38:10.751Z,26.00
2018-07-23T04:40:39.127Z,20.87
2018-07-23T04:43:07.298Z,28.17
2018-07-23T04:45:39.672Z,14.60
2018-07-23T04:48:15.365Z,13.97
2018-07-23T04:50:46.362Z,9.40
2018-07-23T04:53:18.869Z,10.60
2018-07-23T04:55:51.337Z,8.13
2018-07-23T04:58:23.067Z,8.70
2018-07-23T05:00:58.104Z,7.77
2018-07-23T05:03:28.576Z,7.87
2018-07-23T05:05:59.766Z,8.80
2018-07-23T05:08:27.947Z,8.27
2018-07-23T05:11:00.162Z,9.33
2018-07-23T05:13:33.425Z,7.80
2018-07-23T05:16:03.800Z,8.00
2018-07-23T05:18:32.205Z,7.53
2018-07-23T05:21:00.491Z,8.37
2018-07-23T05:23:30.812Z,6.60
2018-07-23T05:26:02.042Z,8.00
2018-07-23T05:28:34.041Z,8.47
2018-07-23T05:31:02.276Z,7.80
2018-07-23T05:33:36.829Z,6.70
2018-07-23T05:36:07.244Z,6.73
2018-07-23T05:38:40.401Z,7.77
2018-07-23T05:41:10.703Z,6.57
2018-07-23T05:43:40.930Z,6.90
2018-07-23T05:46:09.130Z,7.43
2018-07-23T05:48:43.747Z,7.33
2018-07-23T05:51:14.551Z,8.80
2018-07-23T05:53:43.239Z,7.30
2018-07-23T05:56:14.745Z,6.40
2018-07-23T05:58:45.929Z,6.80
2018-07-23T06:01:14.339Z,6.73
2018-07-23T06:03:42.596Z,7.87
2018-07-23T06:06:13.631Z,7.57
2018-07-23T06:08:55.607Z,7.70
2018-07-23T06:11:23.769Z,6.27
2018-07-23T06:13:54.925Z,6.67
2018-07-23T06:16:33.243Z,5.97
2018-07-23T06:19:04.663Z,6.27
2018-07-23T06:21:35.049Z,6.20
2018-07-23T06:24:03.565Z,6.00
2018-07-23T06:26:31.916Z,5.80
2018-07-23T06:29:00.144Z,6.37
2018-07-23T06:31:31.375Z,5.97
2018-07-23T06:33:59.878Z,6.10
2018-07-23T06:36:33.441Z,4.93
2018-07-23T06:39:09.102Z,7.40
2018-07-23T06:41:48.030Z,4.70
2018-07-23T06:44:27.993Z,4.50
2018-07-23T06:46:56.233Z,4.00
2018-07-23T06:49:27.221Z,4.03
2018-07-23T06:51:55.564Z,5.23
2018-07-23T06:54:23.844Z,3.83
2018-07-23T06:56:58.569Z,3.43
2018-07-23T06:59:26.712Z,3.77
2018-07-23T07:02:01.371Z,3.80
2018-07-23T07:04:29.641Z,2.77
2018-07-23T07:07:02.788Z,2.90
2018-07-23T07:09:41.109Z,3.10
2018-07-23T07:12:11.382Z,3.23
2018-07-23T07:14:39.838Z,3.83
2018-07-23T07:17:08.003Z,4.07
2018-07-23T07:19:48.031Z,3.63
2018-07-23T07:22:26.681Z,3.17
2018-07-23T07:25:05.248Z,2.60
2018-07-23T07:27:39.692Z,2.97
2018-07-23T07:30:15.038Z,3.00
2018-07-23T07:32:53.257Z,3.37
2018-07-23T07:35:23.952Z,3.87
2018-07-23T07:37:57.028Z,3.40
2018-07-23T07:40:35.527Z,3.10
2018-07-23T07:43:06.972Z,3.07
2018-07-23T07:45:39.444Z,4.13
2018-07-23T07:48:10.918Z,3.07
2018-07-23T07:50:42.370Z,4.63
2018-07-23T07:53:14.728Z,2.90
2018-07-23T07:55:54.804Z,3.57
2018-07-23T07:58:23.017Z,3.00
2018-07-23T08:01:02.892Z,3.63
2018-07-23T08:03:33.201Z,3.50
2018-07-23T08:06:01.378Z,3.17
2018-07-23T08:08:34.460Z,4.40
2018-07-23T08:11:04.906Z,3.30
2018-07-23T08:13:43.344Z,5.43
2018-07-23T08:16:23.926Z,4.10
2018-07-23T08:18:57.230Z,4.60
2018-07-23T08:21:37.245Z,9.33
2018-07-23T08:24:05.607Z,3.80
2018-07-23T08:26:34.189Z,5.03
2018-07-23T08:29:02.682Z,4.00
2018-07-23T08:31:31.184Z,3.30
2018-07-23T08:33:59.495Z,3.60
2018-07-23T08:36:29.789Z,4.20
2018-07-23T08:39:05.188Z,3.80
2018-07-23T08:41:38.687Z,3.93
2018-07-23T08:44:18.555Z,5.47
2018-07-23T08:46:46.811Z,4.20
2018-07-23T08:49:20.064Z,4.20
2018-07-23T08:51:59.891Z,3.53
2018-07-23T08:54:28.149Z,3.53
2018-07-23T08:56:59.474Z,3.97
2018-07-23T08:59:41.584Z,4.00
2018-07-23T09:02:13.887Z,5.00
2018-07-23T09:04:45.070Z,3.70
2018-07-23T09:07:13.299Z,5.07
2018-07-23T09:09:47.838Z,5.83
2018-07-23T09:12:21.197Z,5.63
2018-07-23T09:14:56.242Z,4.53
2018-07-23T09:17:37.001Z,3.80
2018-07-23T09:20:11.539Z,7.43
2018-07-23T09:22:45.130Z,7.93
2018-07-23T09:25:13.380Z,3.83
2018-07-23T09:27:50.833Z,3.47
2018-07-23T09:30:28.909Z,4.13
2018-07-23T09:33:09.547Z,6.40
2018-07-23T09:35:44.142Z,4.23
2018-07-23T09:38:16.430Z,5.17
2018-07-23T09:40:50.922Z,7.37
2018-07-23T09:43:24.426Z,5.50
2018-07-23T09:46:01.806Z,4.97
2018-07-23T09:48:37.154Z,5.23
2018-07-23T09:51:15.824Z,6.97
2018-07-23T09:53:44.265Z,5.80
2018-07-23T09:56:15.243Z,4.20
2018-07-23T09:58:47.749Z,4.97
2018-07-23T10:01:25.526Z,4.03
2018-07-23T10:04:03.108Z,4.27
2018-07-23T10:06:31.405Z,8.37
2018-07-23T10:09:04.142Z,3.80
2018-07-23T10:11:32.326Z,4.57
2018-07-23T10:14:07.835Z,3.67
2018-07-23T10:16:40.365Z,3.97
2018-07-23T10:19:08.642Z,3.57
2018-07-23T10:21:43.262Z,4.63
2018-07-23T10:24:14.509Z,4.10
2018-07-23T10:26:52.391Z,5.83
2018-07-23T10:29:20.569Z,5.07
2018-07-23T10:32:02.052Z,4.20
2018-07-23T10:34:33.001Z,3.63
2018-07-23T10:37:03.396Z,4.53
2018-07-23T10:39:31.706Z,7.50
2018-07-23T10:42:00.168Z,4.40
2018-07-23T10:44:28.581Z,5.07
2018-07-23T10:46:56.844Z,5.60
2018-07-23T10:49:24.963Z,4.93
2018-07-23T10:51:55.838Z,6.30
2018-07-23T10:54:30.488Z,5.50
2018-07-23T10:56:58.695Z,4.17
2018-07-23T11:02:06.902Z,4.50
2018-07-23T11:04:35.239Z,6.17
2018-07-23T11:07:08.802Z,4.37
2018-07-23T11:09:37.097Z,5.27
2018-07-23T11:12:08.332Z,5.50
2018-07-23T11:14:39.993Z,5.83
2018-07-23T11:17:19.865Z,4.40
2018-07-23T11:19:48.229Z,5.10
2018-07-23T11:22:16.539Z,4.93
2018-07-23T11:24:49.994Z,5.77
2018-07-23T11:27:23.288Z,5.20
2018-07-23T11:29:57.709Z,4.47
2018-07-23T11:32:28.658Z,5.20
2018-07-23T11:34:57.078Z,4.30
2018-07-23T11:37:25.629Z,4.47
2018-07-23T11:39:53.947Z,6.10
2018-07-23T11:42:25.065Z,4.35
2018-07-23T11:44:56.701Z,5.20
2018-07-23T11:47:31.264Z,5.50
2018-07-23T11:50:02.385Z,5.65
2018-07-23T11:52:33.723Z,5.60
2018-07-23T11:55:08.369Z,5.27
2018-07-23T11:57:41.415Z,4.97
2018-07-23T12:00:09.645Z,5.43
2018-07-23T12:02:42.914Z,6.00
2018-07-23T12:05:14.506Z,6.63
2018-07-23T12:07:44.962Z,4.77
2018-07-23T12:10:19.794Z,3.97
2018-07-23T12:12:47.985Z,9.80
2018-07-23T12:15:20.297Z,6.23
2018-07-23T12:17:51.522Z,4.53
2018-07-23T12:20:24.805Z,5.17
2018-07-23T12:22:55.950Z,5.50
2018-07-23T12:25:24.249Z,4.63
2018-07-23T12:27:56.562Z,3.27
2018-07-23T12:30:31.107Z,4.70
2018-07-23T12:33:02.777Z,4.87
2018-07-23T12:35:31.025Z,5.53
2018-07-23T12:38:07.311Z,4.97
2018-07-23T12:40:38.247Z,3.37
2018-07-23T12:43:06.476Z,5.60
2018-07-23T12:45:41.049Z,4.07
2018-07-23T12:48:09.383Z,4.83
2018-07-23T12:50:42.545Z,3.57
2018-07-23T12:53:14.077Z,3.80
2018-07-23T12:55:45.564Z,4.57
2018-07-23T12:58:17.752Z,4.20
2018-07-23T13:00:46.173Z,3.70
2018-07-23T13:03:14.558Z,4.83
2018-07-23T13:05:42.847Z,3.83
2018-07-23T13:08:15.927Z,5.83
2018-07-23T13:10:47.293Z,4.13
2018-07-23T13:13:17.874Z,3.87
2018-07-23T13:15:53.920Z,4.73
2018-07-23T13:18:22.095Z,3.67
2018-07-23T13:20:56.787Z,3.03
2018-07-23T13:23:25.017Z,3.73
2018-07-23T13:25:59.730Z,4.80
2018-07-23T13:28:28.122Z,4.23
2018-07-23T13:31:00.301Z,3.83
2018-07-23T13:33:28.280Z,6.63
2018-07-23T13:35:56.644Z,3.50
2018-07-23T13:38:24.891Z,3.37
2018-07-23T13:41:06.944Z,3.50
2018-07-23T13:43:35.499Z,3.58
2018-07-23T13:46:06.031Z,3.80
2018-07-23T13:48:37.510Z,3.42
2018-07-23T13:51:13.664Z,4.60
2018-07-23T13:53:42.113Z,3.33
2018-07-23T13:56:10.598Z,3.33
2018-07-23T13:58:42.869Z,3.00
2018-07-23T14:01:11.102Z,2.97
2018-07-23T14:03:45.529Z,2.90
2018-07-23T14:06:16.515Z,3.67
2018-07-23T14:08:44.941Z,3.67
2018-07-23T14:11:13.381Z,4.73
2018-07-23T14:13:41.615Z,3.07
2018-07-23T14:16:16.379Z,3.30
2018-07-23T14:18:44.774Z,3.33
2018-07-23T14:21:13.047Z,2.87
2018-07-23T14:23:51.168Z,3.17
2018-07-23T14:26:23.893Z,3.00
2018-07-23T14:28:55.053Z,3.90
2018-07-23T14:31:26.395Z,3.30
2018-07-23T14:33:54.780Z,3.20
2018-07-23T14:36:23.546Z,2.77
2018-07-23T14:38:56.819Z,3.70
2018-07-23T14:41:27.091Z,2.93
2018-07-23T14:43:55.406Z,3.00
2018-07-23T14:46:26.703Z,2.67
2018-07-23T14:48:59.296Z,3.93
2018-07-23T14:51:31.756Z,4.83
2018-07-23T14:54:04.239Z,3.13
2018-07-23T14:56:35.541Z,2.80
2018-07-23T14:59:12.023Z,2.40
2018-07-23T15:01:45.082Z,2.80
2018-07-23T15:04:23.995Z,4.33
2018-07-23T15:06:56.422Z,2.63
2018-07-23T15:09:29.687Z,3.43
2018-07-23T15:12:04.987Z,2.90
2018-07-23T15:14:38.090Z,2.80
2018-07-23T15:17:06.323Z,2.80
2018-07-23T15:19:34.634Z,3.77
2018-07-23T15:22:07.740Z,2.50
2018-07-23T15:24:49.644Z,3.73
2018-07-23T15:27:20.381Z,6.00
2018-07-23T15:29:48.598Z,2.93
2018-07-23T15:32:21.821Z,3.23
2018-07-23T15:34:58.517Z,5.13
2018-07-23T15:37:26.864Z,3.53
2018-07-23T15:40:01.350Z,4.43
2018-07-23T15:42:33.953Z,2.80
2018-07-23T15:45:02.349Z,3.23
2018-07-23T15:47:34.934Z,3.20
2018-07-23T15:50:03.167Z,3.97
2018-07-23T15:52:37.950Z,3.00
2018-07-23T15:55:06.271Z,3.43
2018-07-23T15:57:38.657Z,4.07
2018-07-23T16:00:11.904Z,3.63
2018-07-23T16:02:46.409Z,2.83
2018-07-23T16:05:18.840Z,2.60
2018-07-23T16:07:49.911Z,4.23
2018-07-23T16:10:18.302Z,3.10
2018-07-23T16:12:46.532Z,2.50
2018-07-23T16:15:16.874Z,2.63
2018-07-23T16:17:53.567Z,2.80
2018-07-23T16:20:21.828Z,2.63
2018-07-23T16:22:57.351Z,4.27
2018-07-23T16:25:28.341Z,2.83
2018-07-23T16:27:58.782Z,2.93
2018-07-23T16:30:39.704Z,3.23
2018-07-23T16:33:12.195Z,2.33
2018-07-23T16:35:40.487Z,3.70
2018-07-23T16:38:17.348Z,3.03
2018-07-23T16:40:45.792Z,2.73
2018-07-23T16:43:14.094Z,2.80
2018-07-23T16:45:46.514Z,2.67
2018-07-23T16:48:20.072Z,2.87
2018-07-23T16:50:48.301Z,3.40
2018-07-23T16:53:23.854Z,2.67
2018-07-23T16:56:03.675Z,3.50
2018-07-23T16:58:32.096Z,5.43
2018-07-23T17:01:00.572Z,2.50
2018-07-23T17:03:28.885Z,2.40
2018-07-23T17:05:57.543Z,2.50
2018-07-23T17:08:25.708Z,3.57
2018-07-23T17:11:00.368Z,4.80
2018-07-23T17:13:28.661Z,2.97
2018-07-23T17:18:36.647Z,2.80
2018-07-23T17:21:08.975Z,2.83
2018-07-23T17:23:40.055Z,2.50
2018-07-23T17:26:20.780Z,3.07
2018-07-23T17:28:55.669Z,3.03
2018-07-23T17:31:23.981Z,5.10
2018-07-23T17:33:52.191Z,2.60
2018-07-23T17:36:27.597Z,3.13
2018-07-23T17:39:04.584Z,2.67
2018-07-23T17:41:32.940Z,2.87
2018-07-23T17:44:01.142Z,6.27
2018-07-23T17:46:34.226Z,2.67
2018-07-23T17:49:13.978Z,3.23
2018-07-23T17:51:48.772Z,3.83
2018-07-23T17:54:17.083Z,2.90
2018-07-23T17:56:45.278Z,3.37
2018-07-23T17:59:16.280Z,4.27
2018-07-23T18:01:44.496Z,4.87
2018-07-23T18:04:14.477Z,3.37
2018-07-23T18:06:45.769Z,3.40
2018-07-23T18:09:14.166Z,3.67
2018-07-23T18:11:42.841Z,3.03
2018-07-23T18:14:11.406Z,2.50
2018-07-23T18:16:40.333Z,3.07
2018-07-23T18:19:14.945Z,2.80
2018-07-23T18:21:43.103Z,2.87
2018-07-23T18:24:16.279Z,2.97
2018-07-23T18:29:24.928Z,3.37
2018-07-23T18:31:53.196Z,2.83
2018-07-23T18:34:24.288Z,5.10
2018-07-23T18:36:56.672Z,3.93
2018-07-23T18:39:26.943Z,3.07
2018-07-23T18:41:55.120Z,3.37
2018-07-23T18:44:28.585Z,3.40
2018-07-23T18:46:59.032Z,2.93
2018-07-23T18:49:41.568Z,2.83
2018-07-23T18:52:09.954Z,3.00
2018-07-23T18:54:41.983Z,3.73
2018-07-23T18:57:22.885Z,2.90
2018-07-23T18:59:51.394Z,2.60
2018-07-23T19:02:20.139Z,5.40
2018-07-23T19:04:49.020Z,3.03
2018-07-23T19:07:23.487Z,3.33
2018-07-23T19:09:54.481Z,6.73
2018-07-23T19:12:22.724Z,3.77
2018-07-23T19:14:55.131Z,5.63
2018-07-23T19:17:30.035Z,3.53
2018-07-23T19:19:58.640Z,3.83
2018-07-23T19:22:29.750Z,4.77
2018-07-23T19:24:57.981Z,4.57
2018-07-23T19:30:06.395Z,6.27
2018-07-23T19:32:34.666Z,3.87
2018-07-23T19:35:03.057Z,6.10
2018-07-23T19:37:31.278Z,3.47
2018-07-23T19:40:02.433Z,3.57
2018-07-23T19:42:32.575Z,3.00
2018-07-23T19:45:00.845Z,4.57
2018-07-23T19:47:35.581Z,5.10
2018-07-23T19:50:04.672Z,4.70
2018-07-23T19:52:35.894Z,3.47
2018-07-23T19:55:16.685Z,3.73
2018-07-23T19:57:54.345Z,3.53
2018-07-23T20:00:22.530Z,3.70
2018-07-23T20:02:59.972Z,7.60
2018-07-23T20:05:36.849Z,4.83
2018-07-23T20:08:15.300Z,3.90
2018-07-23T20:10:45.458Z,4.43
2018-07-23T20:13:13.662Z,5.97
2018-07-23T20:15:55.633Z,6.97
2018-07-23T20:18:24.287Z,5.37
2018-07-23T20:20:55.824Z,3.87
2018-07-23T20:23:30.510Z,5.60
2018-07-23T20:26:12.504Z,6.87
2018-07-23T20:28:42.870Z,5.50
2018-07-23T20:31:13.043Z,5.53
2018-07-23T20:33:41.329Z,4.93
2018-07-23T20:36:15.831Z,5.00
2018-07-23T20:38:46.955Z,3.93
2018-07-23T20:41:18.075Z,6.07
2018-07-23T20:43:46.365Z,5.17
2018-07-23T20:46:14.571Z,4.20
2018-07-23T20:48:54.617Z,6.40
2018-07-23T20:51:23.055Z,5.90
2018-07-23T20:53:51.566Z,5.20
2018-07-23T20:56:19.712Z,3.93
2018-07-23T20:58:53.177Z,3.83
2018-07-23T21:01:24.303Z,4.80
2018-07-23T21:03:55.408Z,4.30
2018-07-23T21:06:24.116Z,4.37
2018-07-23T21:08:54.221Z,4.03
2018-07-23T21:11:22.412Z,3.50
2018-07-23T21:13:56.974Z,3.70
2018-07-23T21:16:29.261Z,4.53
2018-07-23T21:18:59.665Z,6.17
2018-07-23T21:21:30.934Z,4.23
2018-07-23T21:24:01.485Z,3.93
2018-07-23T21:26:41.385Z,3.90
2018-07-23T21:29:09.662Z,4.10
2018-07-23T21:31:43.930Z,4.40
2018-07-23T21:34:15.307Z,4.50
2018-07-23T21:36:48.923Z,4.20
2018-07-23T21:39:19.950Z,3.73
2018-07-23T21:41:48.533Z,5.27
2018-07-23T21:44:20.132Z,4.03
2018-07-23T21:46:58.442Z,4.53
2018-07-23T21:49:29.801Z,3.87
2018-07-23T21:51:58.011Z,7.37
2018-07-23T21:54:28.877Z,4.57
2018-07-23T21:56:59.936Z,4.40
2018-07-23T21:59:31.320Z,4.60
2018-07-23T22:02:04.645Z,4.20
2018-07-23T22:04:37.139Z,4.83
2018-07-23T22:07:08.332Z,6.17
2018-07-23T22:09:47.927Z,5.10
2018-07-23T22:12:18.940Z,5.00
2018-07-23T22:14:47.265Z,4.00
2018-07-23T22:17:15.485Z,4.77
2018-07-23T22:19:46.453Z,4.63
2018-07-23T22:22:14.720Z,6.53
2018-07-23T22:24:43.195Z,5.63
2018-07-23T22:27:11.439Z,6.53
2018-07-23T22:29:51.744Z,4.40
2018-07-23T22:32:26.216Z,5.03
2018-07-23T22:35:04.064Z,8.07
2018-07-23T22:37:32.291Z,4.57
2018-07-23T22:40:06.502Z,4.70
2018-07-23T22:42:47.325Z,5.77
2018-07-23T22:45:15.596Z,7.27
2018-07-23T22:47:52.544Z,4.50
2018-07-23T22:50:21.372Z,6.63
2018-07-23T22:52:53.618Z,5.40
2018-07-23T22:55:24.776Z,5.00
2018-07-23T22:57:52.907Z,4.97
2018-07-23T23:00:24.084Z,5.47
2018-07-23T23:02:57.489Z,5.53
2018-07-23T23:05:35.743Z,6.40
2018-07-23T23:08:04.181Z,5.27
2018-07-23T23:10:32.620Z,6.50
2018-07-23T23:13:00.861Z,5.13
2018-07-23T23:15:34.125Z,5.13
2018-07-23T23:18:09.539Z,5.27
2018-07-23T23:20:37.518Z,5.00
2018-07-23T23:23:05.689Z,6.10
2018-07-23T23:25:36.756Z,5.60
2018-07-23T23:28:15.059Z,4.90
2018-07-23T23:30:44.151Z,5.47
2018-07-23T23:33:15.200Z,5.30
2018-07-23T23:35:43.638Z,5.93
2018-07-23T23:38:14.910Z,5.23
2018-07-23T23:40:43.362Z,7.03
2018-07-23T23:43:11.617Z,6.57
2018-07-23T23:45:42.489Z,5.00
2018-07-23T23:48:10.904Z,4.37
2018-07-23T23:50:39.282Z,5.43
2018-07-23T23:53:07.622Z,5.20
2018-07-23T23:55:35.828Z,5.83
2018-07-23T23:58:10.536Z,5.20
